createdAt,value
2023-03-31T00:01:01.037Z,26.63
2023-03-31T00:03:29.472Z,23.65
2023-03-31T00:06:00.065Z,17.13
2023-03-31T00:08:30.154Z,19.20
2023-03-31T00:11:01.324Z,22.10
2023-03-31T00:13:29.659Z,20.23
2023-03-31T00:15:58.998Z,17.52
2023-03-31T00:18:27.223Z,18.55
2023-03-31T00:20:58.208Z,15.88
2023-03-31T00:23:28.956Z,17.77
2023-03-31T00:25:57.003Z,18.13
2023-03-31T00:28:25.080Z,18.38
2023-03-31T00:30:53.586Z,16.63
2023-03-31T00:33:21.806Z,17.65
2023-03-31T00:35:52.790Z,14.77
2023-03-31T00:38:21.923Z,15.68
2023-03-31T00:40:53.707Z,15.55
2023-03-31T00:43:33.393Z,15.27
2023-03-31T00:46:13.816Z,16.27
2023-03-31T00:48:44.039Z,15.90
2023-03-31T00:51:12.627Z,12.52
2023-03-31T00:53:41.645Z,12.70
2023-03-31T00:56:15.860Z,14.50
2023-03-31T00:58:45.847Z,14.07
2023-03-31T01:01:19.347Z,18.63
2023-03-31T01:03:48.342Z,13.40
2023-03-31T01:06:19.894Z,16.98
2023-03-31T01:08:49.952Z,20.03
2023-03-31T01:11:21.871Z,14.40
2023-03-31T01:13:51.731Z,16.15
2023-03-31T01:16:20.019Z,18.48
2023-03-31T01:18:49.839Z,18.10
2023-03-31T01:21:57.058Z,19.75
2023-03-31T01:24:47.551Z,22.52
2023-03-31T01:27:50.852Z,16.70
2023-03-31T01:30:54.067Z,17.48
2023-03-31T01:36:43.187Z,18.05
2023-03-31T01:39:46.156Z,19.42
2023-03-31T01:44:55.198Z,16.95
2023-03-31T01:47:29.135Z,19.35
2023-03-31T01:50:03.920Z,19.52
2023-03-31T01:52:39.650Z,17.55
2023-03-31T01:55:12.692Z,20.63
2023-03-31T01:57:46.676Z,20.35
2023-03-31T02:00:18.280Z,22.63
2023-03-31T02:02:50.395Z,23.13
2023-03-31T02:05:21.863Z,22.88
2023-03-31T02:07:53.886Z,18.87
2023-03-31T02:10:24.788Z,23.45
2023-03-31T02:12:56.256Z,23.17
2023-03-31T02:15:29.170Z,26.07
2023-03-31T02:18:00.114Z,20.45
2023-03-31T02:20:32.481Z,20.38
2023-03-31T02:25:35.357Z,20.90
2023-03-31T02:28:09.620Z,18.90
2023-03-31T02:30:46.596Z,23.20
2023-03-31T02:33:15.726Z,19.52
2023-03-31T02:35:43.943Z,20.45
2023-03-31T02:38:12.080Z,23.33
2023-03-31T02:40:40.262Z,16.95
2023-03-31T02:43:09.684Z,21.75
2023-03-31T02:45:45.014Z,19.77
2023-03-31T02:48:18.889Z,19.85
2023-03-31T02:51:18.665Z,23.95
2023-03-31T02:54:07.973Z,18.35
2023-03-31T02:56:53.412Z,21.63
2023-03-31T02:59:37.758Z,22.02
2023-03-31T03:02:15.110Z,16.35
2023-03-31T03:05:09.177Z,14.27
2023-03-31T03:07:45.537Z,18.52
2023-03-31T03:10:18.493Z,18.83
2023-03-31T03:12:53.603Z,17.45
2023-03-31T03:15:27.287Z,13.18
2023-03-31T03:17:57.785Z,15.75
2023-03-31T03:20:26.064Z,13.15
2023-03-31T03:22:54.041Z,11.45
2023-03-31T03:25:22.190Z,12.70
2023-03-31T03:27:53.050Z,11.10
2023-03-31T03:30:22.604Z,10.93
2023-03-31T03:32:50.675Z,15.30
2023-03-31T03:35:18.753Z,15.20
2023-03-31T03:37:46.784Z,17.50
2023-03-31T03:40:15.344Z,16.58
2023-03-31T03:42:43.460Z,16.63
2023-03-31T03:45:11.900Z,18.77
2023-03-31T03:47:41.470Z,21.48
2023-03-31T03:50:12.493Z,18.02
2023-03-31T03:52:41.511Z,23.52
2023-03-31T03:55:12.004Z,23.23
2023-03-31T03:57:39.979Z,22.30
2023-03-31T04:00:12.386Z,21.52
2023-03-31T04:02:42.261Z,21.50
2023-03-31T04:05:11.034Z,24.23
2023-03-31T04:07:39.045Z,24.38
2023-03-31T04:10:08.314Z,21.00
2023-03-31T04:12:36.920Z,25.98
2023-03-31T04:15:06.383Z,26.60
2023-03-31T04:17:34.967Z,30.17
2023-03-31T04:20:09.389Z,27.55
2023-03-31T04:22:40.730Z,28.75
2023-03-31T04:25:16.216Z,26.07
2023-03-31T04:27:46.683Z,27.40
2023-03-31T04:30:22.566Z,26.05
2023-03-31T04:32:53.253Z,27.70
2023-03-31T04:35:24.354Z,31.35
2023-03-31T04:37:59.222Z,28.15
2023-03-31T04:40:27.613Z,27.33
2023-03-31T04:42:55.605Z,25.73
2023-03-31T04:45:23.535Z,27.13
2023-03-31T04:47:51.515Z,24.67
2023-03-31T04:50:19.681Z,22.38
2023-03-31T04:52:49.067Z,19.20
2023-03-31T04:55:17.114Z,18.65
2023-03-31T04:57:45.092Z,18.10
2023-03-31T05:00:14.342Z,16.80
2023-03-31T05:02:42.719Z,14.98
2023-03-31T05:05:11.521Z,19.85
2023-03-31T05:07:39.544Z,15.75
2023-03-31T05:10:09.782Z,15.90
2023-03-31T05:12:38.047Z,15.25
2023-03-31T05:15:07.708Z,14.93
2023-03-31T05:17:38.162Z,13.85
2023-03-31T05:20:08.428Z,14.63
2023-03-31T05:22:37.484Z,12.35
2023-03-31T05:25:09.452Z,14.00
2023-03-31T05:27:37.755Z,13.13
2023-03-31T05:30:08.175Z,14.25
2023-03-31T05:32:36.213Z,15.70
2023-03-31T05:35:04.377Z,15.85
2023-03-31T05:37:32.826Z,17.30
2023-03-31T05:40:01.175Z,12.75
2023-03-31T05:42:30.580Z,12.95
2023-03-31T05:44:58.726Z,9.13
2023-03-31T05:47:27.134Z,11.40
2023-03-31T05:49:55.177Z,12.38
2023-03-31T05:52:23.244Z,10.65
2023-03-31T05:54:51.205Z,13.27
2023-03-31T05:57:19.223Z,12.70
2023-03-31T05:59:48.609Z,11.20
2023-03-31T06:02:17.144Z,10.63
2023-03-31T06:04:45.125Z,10.32
2023-03-31T06:07:15.060Z,11.27
2023-03-31T06:09:43.094Z,10.95
2023-03-31T06:12:11.124Z,13.20
2023-03-31T06:14:39.097Z,12.38
2023-03-31T06:17:08.404Z,12.43
2023-03-31T06:19:36.400Z,17.60
2023-03-31T06:22:04.411Z,10.50
2023-03-31T06:24:32.446Z,14.55
2023-03-31T06:27:01.258Z,15.45
2023-03-31T06:29:29.334Z,17.17
2023-03-31T06:31:57.377Z,19.00
2023-03-31T06:34:27.092Z,17.90
2023-03-31T06:36:55.076Z,18.73
2023-03-31T06:39:23.314Z,19.90
2023-03-31T06:41:51.889Z,18.33
2023-03-31T06:44:23.056Z,16.38
2023-03-31T06:46:51.108Z,16.02
2023-03-31T06:49:19.120Z,17.90
2023-03-31T06:51:48.442Z,16.05
2023-03-31T06:54:16.427Z,16.15
2023-03-31T06:56:44.411Z,17.27
2023-03-31T06:59:12.434Z,17.70
2023-03-31T07:01:42.505Z,18.08
2023-03-31T07:04:11.025Z,19.63
2023-03-31T07:06:39.000Z,19.40
2023-03-31T07:09:08.356Z,19.67
2023-03-31T07:11:36.361Z,18.23
2023-03-31T07:14:04.340Z,16.55
2023-03-31T07:16:32.647Z,15.05
2023-03-31T07:19:04.328Z,18.73
2023-03-31T07:21:32.389Z,16.23
2023-03-31T07:24:00.679Z,15.60
2023-03-31T07:26:30.004Z,16.10
2023-03-31T07:28:57.973Z,19.42
2023-03-31T07:31:26.446Z,16.73
2023-03-31T07:33:54.420Z,19.70
2023-03-31T07:36:22.547Z,18.77
2023-03-31T07:38:50.774Z,18.67
2023-03-31T07:41:20.512Z,23.98
2023-03-31T07:43:50.939Z,22.23
2023-03-31T07:46:21.455Z,14.57
2023-03-31T07:48:49.927Z,19.80
2023-03-31T07:51:20.455Z,19.35
2023-03-31T07:53:52.254Z,20.88
2023-03-31T07:56:21.218Z,22.77
2023-03-31T07:58:51.175Z,19.60
2023-03-31T08:01:20.747Z,19.83
2023-03-31T08:03:49.647Z,19.23
2023-03-31T08:06:19.759Z,21.17
2023-03-31T08:08:47.713Z,17.80
2023-03-31T08:11:15.976Z,19.05
2023-03-31T08:13:43.956Z,20.17
2023-03-31T08:16:13.299Z,16.60
2023-03-31T08:18:41.331Z,15.75
2023-03-31T08:21:10.805Z,23.38
2023-03-31T08:23:38.875Z,18.58
2023-03-31T08:26:17.758Z,19.10
2023-03-31T08:28:46.079Z,21.27
2023-03-31T08:31:16.410Z,19.25
2023-03-31T08:33:44.722Z,19.05
2023-03-31T08:36:13.649Z,20.13
2023-03-31T08:38:46.092Z,20.77
2023-03-31T08:41:31.821Z,23.63
2023-03-31T08:44:02.758Z,21.05
2023-03-31T08:46:35.578Z,21.88
2023-03-31T08:49:05.404Z,23.63
2023-03-31T08:51:37.524Z,22.15
2023-03-31T08:54:08.154Z,24.10
2023-03-31T08:56:39.384Z,23.75
2023-03-31T08:59:08.564Z,19.73
2023-03-31T09:01:55.475Z,24.20
2023-03-31T09:04:40.175Z,20.77
2023-03-31T09:07:16.672Z,19.52
2023-03-31T09:09:53.193Z,18.00
2023-03-31T09:12:24.623Z,16.63
2023-03-31T09:14:59.020Z,28.17
2023-03-31T09:17:31.254Z,20.30
2023-03-31T09:22:33.793Z,17.23
2023-03-31T09:25:06.802Z,15.27
2023-03-31T09:27:37.368Z,21.20
2023-03-31T09:30:14.678Z,18.40
2023-03-31T09:32:44.339Z,20.60
2023-03-31T09:35:18.565Z,21.17
2023-03-31T09:37:46.613Z,23.40
2023-03-31T09:40:18.654Z,23.42
2023-03-31T09:42:47.521Z,18.63
2023-03-31T09:45:18.137Z,20.45
2023-03-31T09:47:51.436Z,23.58
2023-03-31T09:50:20.086Z,23.77
2023-03-31T09:52:56.334Z,20.15
2023-03-31T09:55:38.921Z,19.95
2023-03-31T09:58:09.436Z,20.40
2023-03-31T10:00:37.719Z,23.70
2023-03-31T10:03:08.496Z,20.48
2023-03-31T10:05:40.054Z,22.70
2023-03-31T10:08:22.212Z,20.63
2023-03-31T10:10:52.220Z,23.02
2023-03-31T10:13:23.256Z,19.55
2023-03-31T10:15:54.937Z,19.33
2023-03-31T10:18:34.396Z,21.40
2023-03-31T10:21:04.913Z,19.67
2023-03-31T10:23:34.557Z,21.38
2023-03-31T10:26:04.888Z,15.88
2023-03-31T10:28:35.403Z,20.98
2023-03-31T10:31:04.639Z,20.20
2023-03-31T10:33:35.766Z,26.40
2023-03-31T10:36:09.542Z,23.02
2023-03-31T10:38:40.651Z,20.73
2023-03-31T10:41:09.160Z,18.85
2023-03-31T10:43:41.724Z,19.88
2023-03-31T10:46:10.806Z,15.90
2023-03-31T10:48:42.547Z,17.85
2023-03-31T10:51:16.618Z,15.55
2023-03-31T10:53:46.240Z,14.32
2023-03-31T10:56:36.194Z,15.35
2023-03-31T10:59:28.239Z,18.85
2023-03-31T11:02:19.409Z,17.02
2023-03-31T11:04:58.228Z,14.15
2023-03-31T11:07:40.618Z,15.48
2023-03-31T11:10:31.289Z,12.13
2023-03-31T11:13:05.881Z,14.55
2023-03-31T11:15:39.388Z,15.32
2023-03-31T11:18:37.564Z,15.30
2023-03-31T11:21:16.964Z,16.60
2023-03-31T11:23:51.729Z,12.35
2023-03-31T11:26:26.954Z,13.85
2023-03-31T11:29:07.818Z,14.90
2023-03-31T11:31:47.681Z,20.92
2023-03-31T11:34:38.878Z,12.18
2023-03-31T11:37:36.657Z,9.82
2023-03-31T11:40:20.265Z,10.30
2023-03-31T11:42:54.979Z,12.07
2023-03-31T11:45:27.282Z,9.65
2023-03-31T11:50:30.049Z,8.30
2023-03-31T11:53:03.370Z,9.95
2023-03-31T11:55:33.622Z,8.23
2023-03-31T11:58:05.610Z,9.27
2023-03-31T12:00:36.134Z,9.60
2023-03-31T12:03:12.839Z,8.00
2023-03-31T12:05:46.731Z,7.63
2023-03-31T12:08:20.260Z,11.00
2023-03-31T12:10:52.865Z,10.70
2023-03-31T12:13:35.121Z,11.60
2023-03-31T12:16:07.847Z,8.82
2023-03-31T12:18:42.299Z,13.07
2023-03-31T12:21:11.505Z,10.00
2023-03-31T12:23:45.207Z,13.82
2023-03-31T12:26:31.089Z,17.75
2023-03-31T12:29:01.734Z,14.27
2023-03-31T12:31:33.024Z,12.02
2023-03-31T12:34:04.153Z,11.23
2023-03-31T12:36:56.489Z,11.80
2023-03-31T12:39:40.857Z,14.32
2023-03-31T12:42:26.378Z,14.80
2023-03-31T12:44:58.024Z,11.43
2023-03-31T12:47:52.767Z,13.90
2023-03-31T12:50:42.110Z,11.27
2023-03-31T12:53:21.322Z,10.15
2023-03-31T12:55:51.984Z,10.60
2023-03-31T12:58:45.972Z,11.48
2023-03-31T13:01:19.462Z,15.50
2023-03-31T13:03:54.083Z,13.10
2023-03-31T13:06:49.505Z,12.15
2023-03-31T13:09:43.660Z,8.65
2023-03-31T13:12:18.595Z,11.23
2023-03-31T13:14:49.147Z,12.18
2023-03-31T13:17:27.218Z,11.30
2023-03-31T13:19:56.431Z,8.82
2023-03-31T13:22:36.377Z,10.05
2023-03-31T13:25:40.665Z,9.80
2023-03-31T13:28:18.347Z,8.60
2023-03-31T13:30:51.987Z,5.97
2023-03-31T13:33:24.278Z,9.50
2023-03-31T13:38:32.053Z,8.23
2023-03-31T13:41:11.932Z,7.97
2023-03-31T13:44:02.670Z,7.75
2023-03-31T13:46:52.248Z,7.18
2023-03-31T13:49:52.268Z,7.82
2023-03-31T13:52:34.549Z,7.82
2023-03-31T13:55:19.138Z,8.57
2023-03-31T13:58:29.546Z,10.05
2023-03-31T14:01:20.706Z,11.60
2023-03-31T14:04:02.118Z,7.38
2023-03-31T14:06:37.400Z,10.25
2023-03-31T14:09:08.605Z,9.60
2023-03-31T14:11:36.791Z,10.43
2023-03-31T14:14:07.498Z,10.05
2023-03-31T14:16:41.398Z,10.20
2023-03-31T14:19:44.098Z,7.15
2023-03-31T14:22:20.274Z,8.82
2023-03-31T14:24:56.370Z,11.38
2023-03-31T14:27:41.581Z,9.50
2023-03-31T14:30:18.788Z,12.63
2023-03-31T14:32:58.155Z,10.85
2023-03-31T14:35:32.881Z,11.50
2023-03-31T14:38:05.090Z,14.38
2023-03-31T14:43:01.150Z,8.57
2023-03-31T14:45:34.459Z,8.57
2023-03-31T14:48:13.481Z,7.60
2023-03-31T14:50:44.498Z,9.18
2023-03-31T14:53:17.140Z,9.35
2023-03-31T14:55:58.171Z,14.75
2023-03-31T14:58:30.349Z,12.35
2023-03-31T15:00:58.579Z,13.13
2023-03-31T15:03:28.634Z,10.27
2023-03-31T15:05:59.583Z,9.50
2023-03-31T15:08:29.763Z,11.88
2023-03-31T15:11:11.890Z,11.98
2023-03-31T15:13:56.761Z,10.15
2023-03-31T15:16:36.218Z,12.57
2023-03-31T15:19:16.233Z,12.25
2023-03-31T15:21:45.457Z,9.80
2023-03-31T15:24:14.942Z,10.43
2023-03-31T15:26:47.333Z,8.98
2023-03-31T15:29:20.479Z,9.93
2023-03-31T15:31:48.891Z,8.88
2023-03-31T15:34:24.797Z,8.25
2023-03-31T15:36:56.219Z,9.82
2023-03-31T15:39:24.876Z,11.40
2023-03-31T15:41:53.781Z,9.13
2023-03-31T15:44:46.574Z,10.45
2023-03-31T15:47:18.549Z,8.90
2023-03-31T15:49:56.299Z,12.25
2023-03-31T15:52:29.452Z,10.13
2023-03-31T15:54:57.835Z,9.18
2023-03-31T15:57:36.413Z,9.23
2023-03-31T16:00:07.854Z,9.82
2023-03-31T16:02:44.088Z,9.67
2023-03-31T16:05:32.301Z,9.43
2023-03-31T16:08:03.722Z,10.70
2023-03-31T16:10:33.413Z,9.43
2023-03-31T16:13:04.460Z,8.95
2023-03-31T16:15:36.234Z,11.82
2023-03-31T16:18:08.886Z,10.43
2023-03-31T16:20:42.727Z,14.13
2023-03-31T16:23:16.334Z,12.00
2023-03-31T16:25:45.019Z,12.02
2023-03-31T16:28:17.851Z,13.30
2023-03-31T16:30:46.669Z,13.20
2023-03-31T16:33:17.616Z,13.18
2023-03-31T16:35:50.990Z,11.38
2023-03-31T16:38:19.572Z,11.32
2023-03-31T16:40:49.539Z,12.80
2023-03-31T16:43:19.417Z,11.23
2023-03-31T16:45:49.286Z,17.50
2023-03-31T16:48:18.795Z,12.15
2023-03-31T16:50:49.694Z,11.98
2023-03-31T16:53:20.042Z,13.23
2023-03-31T16:55:48.070Z,12.73
2023-03-31T16:58:16.633Z,10.75
2023-03-31T17:00:45.633Z,11.25
2023-03-31T17:03:14.895Z,11.57
2023-03-31T17:05:47.439Z,14.65
2023-03-31T17:10:53.441Z,17.42
2023-03-31T17:13:21.977Z,22.90
2023-03-31T17:15:52.073Z,29.88
2023-03-31T17:18:24.057Z,24.13
2023-03-31T17:20:53.705Z,20.50
2023-03-31T17:23:23.393Z,25.63
2023-03-31T17:25:53.867Z,31.23
2023-03-31T17:28:21.863Z,27.05
2023-03-31T17:30:50.314Z,27.67
2023-03-31T17:33:18.938Z,28.92
2023-03-31T17:35:47.244Z,32.65
2023-03-31T17:38:15.900Z,28.17
2023-03-31T17:40:45.469Z,27.42
2023-03-31T17:43:13.990Z,24.38
2023-03-31T17:45:42.237Z,28.48
2023-03-31T17:48:10.780Z,35.65
2023-03-31T17:50:39.189Z,27.35
2023-03-31T17:53:09.081Z,26.98
2023-03-31T17:55:39.244Z,29.48
2023-03-31T17:58:13.488Z,35.80
2023-03-31T18:00:41.822Z,31.60
2023-03-31T18:03:10.754Z,31.15
2023-03-31T18:05:41.006Z,29.77
2023-03-31T18:08:08.948Z,37.10
2023-03-31T18:10:39.694Z,36.03
2023-03-31T18:13:11.450Z,31.30
2023-03-31T18:15:39.405Z,35.67
2023-03-31T18:18:07.553Z,30.00
2023-03-31T18:20:35.825Z,32.25
2023-03-31T18:23:04.649Z,30.13
2023-03-31T18:25:32.925Z,28.42
2023-03-31T18:28:01.722Z,30.30
2023-03-31T18:30:31.228Z,30.52
2023-03-31T18:33:00.125Z,34.20
2023-03-31T18:35:28.384Z,35.05
2023-03-31T18:37:56.387Z,30.40
2023-03-31T18:40:24.603Z,24.63
2023-03-31T18:42:52.545Z,26.70
2023-03-31T18:45:20.515Z,29.75
2023-03-31T18:47:50.777Z,29.75
2023-03-31T18:50:19.135Z,35.47
2023-03-31T18:52:47.745Z,38.05
2023-03-31T18:55:17.023Z,38.22
2023-03-31T18:57:45.037Z,54.03
2023-03-31T19:00:14.897Z,47.22
2023-03-31T19:02:43.205Z,43.78
2023-03-31T19:05:13.032Z,38.05
2023-03-31T19:07:41.377Z,38.50
2023-03-31T19:10:10.657Z,41.22
2023-03-31T19:12:38.705Z,36.80
2023-03-31T19:15:07.920Z,38.15
2023-03-31T19:17:35.890Z,34.80
2023-03-31T19:20:05.914Z,39.97
2023-03-31T19:22:36.004Z,46.30
2023-03-31T19:25:04.056Z,43.58
2023-03-31T19:27:32.002Z,40.13
2023-03-31T19:29:59.929Z,31.17
2023-03-31T19:32:28.210Z,33.08
2023-03-31T19:34:56.239Z,33.47
2023-03-31T19:37:24.213Z,33.25
2023-03-31T19:39:53.590Z,40.25
2023-03-31T19:42:21.582Z,51.92
2023-03-31T19:44:49.601Z,38.35
2023-03-31T19:47:17.644Z,38.47
2023-03-31T19:49:45.687Z,52.17
2023-03-31T19:52:13.639Z,49.00
2023-03-31T19:54:42.094Z,51.38
2023-03-31T19:57:12.245Z,41.75
2023-03-31T19:59:40.446Z,45.30
2023-03-31T20:02:09.578Z,47.35
2023-03-31T20:04:37.889Z,49.95
2023-03-31T20:07:06.061Z,50.90
2023-03-31T20:09:34.773Z,46.13
2023-03-31T20:12:02.805Z,50.13
2023-03-31T20:14:32.137Z,172.23
2023-03-31T20:17:01.055Z,48.10
2023-03-31T20:19:29.623Z,42.42
2023-03-31T20:21:57.962Z,39.15
2023-03-31T20:24:27.341Z,43.38
2023-03-31T20:26:55.495Z,40.08
2023-03-31T20:29:24.774Z,46.83
2023-03-31T20:31:54.448Z,44.47
2023-03-31T20:34:23.370Z,43.10
2023-03-31T20:36:52.814Z,44.40
2023-03-31T20:39:21.700Z,45.92
2023-03-31T20:41:51.138Z,36.00
2023-03-31T20:44:19.109Z,41.00
2023-03-31T20:46:47.556Z,37.60
2023-03-31T20:49:16.966Z,34.97
2023-03-31T20:51:45.877Z,44.05
2023-03-31T20:54:13.891Z,42.15
2023-03-31T20:56:42.574Z,47.35
2023-03-31T20:59:12.833Z,36.10
2023-03-31T21:01:42.425Z,38.95
2023-03-31T21:04:12.210Z,53.70
2023-03-31T21:06:43.739Z,56.22
2023-03-31T21:09:12.659Z,52.23
2023-03-31T21:11:41.439Z,52.85
2023-03-31T21:14:11.932Z,54.72
2023-03-31T21:16:40.160Z,52.63
2023-03-31T21:19:08.327Z,59.05
2023-03-31T21:21:36.623Z,56.35
2023-03-31T21:24:08.112Z,57.28
2023-03-31T21:26:36.109Z,54.13
2023-03-31T21:29:04.067Z,48.75
2023-03-31T21:31:32.267Z,45.83
2023-03-31T21:34:02.504Z,42.83
2023-03-31T21:36:30.923Z,47.55
2023-03-31T21:38:59.027Z,43.90
2023-03-31T21:41:30.688Z,38.33
2023-03-31T21:44:03.234Z,39.70
2023-03-31T21:46:33.946Z,45.38
2023-03-31T21:49:03.246Z,41.70
2023-03-31T21:51:31.664Z,37.92
2023-03-31T21:53:59.677Z,39.10
2023-03-31T21:56:32.164Z,31.75
2023-03-31T21:59:04.030Z,31.92
2023-03-31T22:01:32.425Z,34.20
2023-03-31T22:04:00.638Z,43.13
2023-03-31T22:06:49.802Z,36.72
2023-03-31T22:09:17.954Z,43.25
2023-03-31T22:11:47.338Z,52.88
2023-03-31T22:14:15.557Z,68.55
2023-03-31T22:16:43.776Z,62.45
2023-03-31T22:19:13.683Z,55.38
2023-03-31T22:21:43.457Z,72.18
2023-03-31T22:24:13.424Z,76.07
2023-03-31T22:26:41.404Z,71.93
2023-03-31T22:29:15.179Z,68.10
2023-03-31T22:31:43.181Z,58.67
2023-03-31T22:34:11.423Z,62.40
2023-03-31T22:36:39.390Z,66.32
2023-03-31T22:39:07.611Z,83.22
2023-03-31T22:41:35.632Z,69.30
2023-03-31T22:44:03.595Z,73.38
2023-03-31T22:46:33.567Z,80.88
2023-03-31T22:49:01.610Z,92.03
2023-03-31T22:51:29.988Z,75.43
2023-03-31T22:53:58.276Z,79.35
2023-03-31T22:56:26.910Z,86.43
2023-03-31T22:58:57.859Z,69.68
2023-03-31T23:01:26.418Z,58.83
2023-03-31T23:03:56.246Z,68.60
2023-03-31T23:06:24.266Z,64.88
2023-03-31T23:08:52.519Z,89.78
2023-03-31T23:11:20.615Z,64.70
2023-03-31T23:13:48.798Z,58.08
2023-03-31T23:16:18.941Z,66.05
2023-03-31T23:18:48.520Z,61.35
2023-03-31T23:21:21.588Z,76.75
2023-03-31T23:23:52.455Z,81.85
2023-03-31T23:26:21.572Z,78.18
2023-03-31T23:28:50.486Z,83.22
2023-03-31T23:31:19.867Z,91.55
2023-03-31T23:33:48.200Z,100.00
2023-03-31T23:36:18.447Z,100.70
2023-03-31T23:38:47.050Z,97.20
2023-03-31T23:41:15.518Z,106.10
2023-03-31T23:43:43.898Z,116.10
2023-03-31T23:46:12.915Z,112.45
2023-03-31T23:48:41.388Z,104.35
2023-03-31T23:51:10.463Z,118.03
2023-03-31T23:53:39.839Z,125.63
2023-03-31T23:56:11.112Z,116.95
2023-03-31T23:58:40.227Z,137.10
